Time;durP1;ratioP1;P1;durP2;ratioP2;P2;SDS_P1;SDS_P2;PMS_P1;PMS_P2;Temp;Humidity;BMP_temperature;BMP_pressure;BME280_temperature;BME280_humidity;BME280_pressure;Samples;Min_cycle;Max_cycle;Signal;HPM_P1;HPM_P2
2022/09/17 00:01:55;;;;;;;;;8.25;7.75;;;;;16.42;65.34;98833.56;4990230;28;45499;-59
2022/09/17 00:04:20;;;;;;;;;11.50;8.75;;;;;16.43;65.31;98831.75;4987505;28;45463;-59
2022/09/17 00:06:46;;;;;;;;;11.00;9.25;;;;;16.44;65.15;98845.91;4994152;28;45383;-59
2022/09/17 00:09:11;;;;;;;;;8.50;8.50;;;;;16.41;64.75;98857.66;4994373;28;45408;-59
2022/09/17 00:11:40;;;;;;;;;11.75;9.75;;;;;16.42;64.95;98847.84;4994611;28;45521;-59
2022/09/17 00:14:08;;;;;;;;;9.00;9.00;;;;;16.37;65.00;98846.34;4994283;28;45430;-59
2022/09/17 00:16:38;;;;;;;;;11.50;10.75;;;;;16.33;64.94;98854.63;4994119;28;45417;-59
2022/09/17 00:19:06;;;;;;;;;10.50;7.75;;;;;16.32;65.05;98852.94;4994079;28;45280;-60
2022/09/17 00:21:32;;;;;;;;;8.75;8.75;;;;;16.28;65.30;98854.09;4994560;28;45450;-59
2022/09/17 00:24:00;;;;;;;;;8.00;8.00;;;;;16.26;64.84;98853.34;4993974;28;45315;-58
2022/09/17 00:26:26;;;;;;;;;11.50;9.75;;;;;16.23;64.88;98851.75;4997435;28;45484;-60
2022/09/17 00:28:53;;;;;;;;;7.00;7.00;;;;;16.20;64.44;98875.91;4998004;28;45362;-60
2022/09/17 00:31:19;;;;;;;;;11.00;11.00;;;;;16.17;64.72;98885.88;4989939;28;46535;-60
2022/09/17 00:33:44;;;;;;;;;7.80;7.80;;;;;16.13;64.66;98849.81;4977914;28;45411;-61
2022/09/17 00:36:10;;;;;;;;;8.50;7.00;;;;;16.08;64.51;98866.09;4961183;28;45400;-62
2022/09/17 00:38:36;;;;;;;;;7.00;5.75;;;;;16.05;64.66;98906.19;4977904;28;45444;-61
2022/09/17 00:41:03;;;;;;;;;5.00;5.00;;;;;15.99;64.06;98859.56;4960708;28;46644;-60
2022/09/17 00:43:47;;;;;;;;;6.25;5.50;;;;;15.97;64.23;98888.06;4977955;28;45531;-60
2022/09/17 00:46:52;;;;;;;;;5.75;5.75;;;;;15.89;64.36;98866.44;4978340;28;45409;-59
2022/09/17 00:49:28;;;;;;;;;7.25;7.25;;;;;15.85;64.13;98870.25;4983082;28;45292;-59
2022/09/17 00:52:09;;;;;;;;;12.00;8.00;;;;;15.79;63.03;98885.75;4997363;28;45808;-60
2022/09/17 00:54:38;;;;;;;;;6.50;5.00;;;;;15.73;63.29;98881.69;4979344;28;46068;-60
2022/09/17 00:57:03;;;;;;;;;6.50;6.50;;;;;15.66;62.84;98913.13;5013292;28;45371;-59
2022/09/17 00:59:29;;;;;;;;;6.25;6.25;;;;;15.54;63.15;98891.78;4990052;28;45463;-61
2022/09/17 01:01:55;;;;;;;;;4.25;3.25;;;;;15.49;63.32;98899.16;4983626;28;46573;-61
2022/09/17 01:04:23;;;;;;;;;6.25;6.25;;;;;15.45;62.71;98919.75;4997054;28;45348;-60
2022/09/17 01:06:55;;;;;;;;;8.00;7.00;;;;;15.36;62.57;98923.00;4997570;28;45381;-60
2022/09/17 01:09:39;;;;;;;;;5.00;5.00;;;;;15.29;62.92;98934.94;4997213;28;45426;-60
2022/09/17 01:12:38;;;;;;;;;5.25;5.25;;;;;15.19;63.04;98915.25;4997203;28;46211;-60
2022/09/17 01:15:25;;;;;;;;;6.00;6.00;;;;;15.19;62.82;98924.06;4975485;28;45393;-59
2022/09/17 01:18:08;;;;;;;;;7.50;6.00;;;;;15.06;62.69;98939.03;4997413;28;45394;-61
2022/09/17 01:20:39;;;;;;;;;7.00;5.50;;;;;15.00;62.91;98945.56;4997579;28;45466;-59
2022/09/17 01:23:13;;;;;;;;;5.25;5.00;;;;;14.92;63.32;98929.25;4970990;28;45543;-60
2022/09/17 01:25:57;;;;;;;;;6.75;5.00;;;;;14.91;62.89;98938.16;4992252;28;45505;-59
2022/09/17 01:28:33;;;;;;;;;6.25;6.25;;;;;14.85;63.43;98927.06;4997500;28;45449;-59
2022/09/17 01:31:06;;;;;;;;;7.50;5.50;;;;;14.80;63.00;98919.38;4997200;28;45467;-60
2022/09/17 01:33:47;;;;;;;;;6.50;6.00;;;;;14.79;63.71;98943.34;4997061;28;46083;-60
2022/09/17 01:36:31;;;;;;;;;5.75;5.75;;;;;14.73;63.06;98947.25;4996453;28;45378;-60
2022/09/17 01:39:31;;;;;;;;;6.50;6.50;;;;;14.69;63.08;98928.94;4996864;28;45500;-60
2022/09/17 01:42:06;;;;;;;;;9.25;6.25;;;;;14.68;63.06;98924.56;4996748;28;45314;-60
2022/09/17 01:45:01;;;;;;;;;7.25;6.00;;;;;14.67;63.08;98926.38;4996623;28;45719;-59
2022/09/17 01:47:38;;;;;;;;;6.00;4.75;;;;;14.66;62.90;98920.22;4973111;28;45459;-59
2022/09/17 01:50:09;;;;;;;;;8.75;7.00;;;;;14.71;62.58;98935.00;4979388;28;45522;-59
2022/09/17 01:52:38;;;;;;;;;7.00;6.25;;;;;14.66;62.57;98945.91;4996624;28;45363;-59
2022/09/17 01:55:14;;;;;;;;;4.00;4.00;;;;;14.62;62.60;98950.53;4996884;28;46519;-59
2022/09/17 01:57:49;;;;;;;;;7.75;4.00;;;;;14.57;62.81;98954.41;4996836;28;45380;-60
2022/09/17 02:00:16;;;;;;;;;5.50;5.50;;;;;14.52;62.83;98959.97;4984834;28;45506;-59
2022/09/17 02:03:03;;;;;;;;;4.25;3.25;;;;;14.48;62.98;98950.47;4976978;28;45473;-60
2022/09/17 02:05:44;;;;;;;;;6.75;6.00;;;;;14.44;63.11;98956.03;4976782;28;46573;-60
2022/09/17 02:08:15;;;;;;;;;6.75;6.75;;;;;14.38;63.23;98970.50;4959176;28;45390;-60
2022/09/17 02:10:50;;;;;;;;;8.00;6.00;;;;;14.33;63.32;98946.03;4977013;28;45501;-60
2022/09/17 02:13:24;;;;;;;;;8.25;6.00;;;;;14.32;63.78;98957.59;4976795;28;45448;-60
2022/09/17 02:16:00;;;;;;;;;5.00;5.00;;;;;14.31;63.59;98958.53;4977102;28;45718;-60
2022/09/17 02:18:25;;;;;;;;;5.75;5.75;;;;;14.28;63.39;98964.00;4976806;28;45317;-60
2022/09/17 02:21:14;;;;;;;;;6.50;6.00;;;;;14.28;63.60;98956.91;4977039;28;45369;-60
2022/09/17 02:24:17;;;;;;;;;7.00;7.00;;;;;14.24;63.51;98960.66;4976366;28;45394;-60
2022/09/17 02:27:05;;;;;;;;;3.50;3.50;;;;;14.22;63.75;98957.28;4976521;28;46252;-61
2022/09/17 02:29:36;;;;;;;;;5.25;4.50;;;;;14.19;63.23;98961.91;4976811;28;45430;-60
2022/09/17 02:32:03;;;;;;;;;6.00;6.00;;;;;14.16;63.49;98977.97;4977019;28;45266;-59
2022/09/17 02:34:28;;;;;;;;;5.75;5.75;;;;;14.13;63.39;98980.78;4976761;28;45404;-60
2022/09/17 02:36:57;;;;;;;;;3.50;3.50;;;;;14.10;63.55;98984.47;4976335;28;45458;-61
2022/09/17 02:39:22;;;;;;;;;6.50;6.25;;;;;14.08;63.49;98961.63;4976334;28;45427;-61
2022/09/17 02:42:00;;;;;;;;;3.25;3.25;;;;;14.04;63.31;98960.97;4976828;28;45444;-61
2022/09/17 02:44:37;;;;;;;;;6.00;4.25;;;;;14.05;63.24;98994.50;4976371;28;45360;-60
2022/09/17 02:47:21;;;;;;;;;7.50;7.50;;;;;14.06;63.21;98977.66;4981021;28;45554;-61
2022/09/17 02:49:49;;;;;;;;;4.75;4.75;;;;;14.05;63.35;98983.91;4995702;28;45298;-61
2022/09/17 02:52:51;;;;;;;;;6.50;5.00;;;;;14.02;63.44;98962.88;4995767;28;45386;-61
2022/09/17 02:55:25;;;;;;;;;7.25;7.00;;;;;14.03;63.47;98991.06;4978198;28;45474;-60
2022/09/17 02:58:01;;;;;;;;;6.50;6.50;;;;;14.01;63.62;98986.81;4995836;28;45508;-61
2022/09/17 03:00:27;;;;;;;;;6.75;6.75;;;;;14.04;63.41;98990.13;4982203;28;45356;-61
2022/09/17 03:03:03;;;;;;;;;5.00;4.00;;;;;14.01;63.43;98998.25;4976268;28;45605;-61
2022/09/17 03:05:29;;;;;;;;;6.75;6.00;;;;;14.03;63.32;99000.81;4976365;28;45454;-61
2022/09/17 03:07:57;;;;;;;;;9.75;8.00;;;;;13.97;63.07;98994.91;4975662;28;46492;-60
2022/09/17 03:10:23;;;;;;;;;5.00;5.00;;;;;13.96;63.29;99003.81;4976447;28;45423;-60
2022/09/17 03:12:48;;;;;;;;;5.00;5.00;;;;;13.96;63.08;98984.41;4975967;28;45506;-60
2022/09/17 03:15:14;;;;;;;;;4.75;4.75;;;;;13.95;62.92;98988.84;4976290;28;45369;-60
2022/09/17 03:17:39;;;;;;;;;5.25;5.25;;;;;13.93;63.33;98982.78;4976021;28;46528;-60
2022/09/17 03:20:05;;;;;;;;;3.00;3.00;;;;;13.96;62.71;98987.03;4975720;28;45337;-60
2022/09/17 03:22:31;;;;;;;;;5.25;5.25;;;;;13.95;62.38;98990.63;4975748;28;45401;-60
2022/09/17 03:24:56;;;;;;;;;5.00;4.50;;;;;13.95;62.44;98983.53;4975752;28;45378;-60
2022/09/17 03:27:21;;;;;;;;;7.75;5.25;;;;;13.96;62.32;98982.59;4975906;28;46610;-60
2022/09/17 03:29:47;;;;;;;;;5.25;5.00;;;;;13.98;62.22;98987.81;4975867;28;45206;-60
2022/09/17 03:32:12;;;;;;;;;5.00;5.00;;;;;13.98;61.83;98987.81;4974098;28;45398;-60
2022/09/17 03:34:37;;;;;;;;;4.00;4.00;;;;;13.99;61.85;98978.94;4995276;28;45533;-60
2022/09/17 03:37:03;;;;;;;;;5.00;5.00;;;;;14.02;61.93;98978.75;4995206;28;46308;-60
2022/09/17 03:39:29;;;;;;;;;5.00;5.00;;;;;14.04;61.30;98995.44;4994865;28;45349;-60
2022/09/17 03:41:57;;;;;;;;;6.00;4.00;;;;;14.04;60.99;99015.78;4995365;28;45479;-60
2022/09/17 03:44:22;;;;;;;;;6.00;5.00;;;;;14.04;60.98;99024.59;4995147;28;45723;-60
2022/09/17 03:46:49;;;;;;;;;5.00;4.00;;;;;14.03;61.39;99014.94;4981687;28;46697;-59
2022/09/17 03:49:14;;;;;;;;;5.20;4.80;;;;;14.07;60.45;99010.31;4993646;28;45421;-60
2022/09/17 03:51:40;;;;;;;;;5.00;4.00;;;;;14.09;59.90;99011.91;4994916;28;45429;-59
2022/09/17 03:54:06;;;;;;;;;5.00;4.75;;;;;14.13;60.17;99005.50;4994559;28;45568;-60
2022/09/17 03:56:31;;;;;;;;;3.75;3.75;;;;;14.14;60.57;99011.66;4995107;28;46182;-60
2022/09/17 03:58:58;;;;;;;;;5.50;5.50;;;;;14.15;59.99;99022.19;4990875;28;45550;-60
2022/09/17 04:01:23;;;;;;;;;4.75;3.75;;;;;14.13;60.19;99015.25;4990639;28;45343;-60
2022/09/17 04:03:49;;;;;;;;;8.00;6.75;;;;;14.12;60.33;99002.94;4992637;28;45550;-60
2022/09/17 04:06:14;;;;;;;;;8.00;5.00;;;;;14.11;60.58;99012.69;4995238;28;46539;-59
2022/09/17 04:08:39;;;;;;;;;6.25;5.25;;;;;14.06;60.47;99025.38;4994247;28;45486;-59
2022/09/17 04:11:06;;;;;;;;;6.25;6.00;;;;;14.07;60.38;99023.56;4977100;28;45429;-59
2022/09/17 04:13:32;;;;;;;;;6.00;6.00;;;;;14.03;59.98;99006.13;4994767;28;45374;-59
2022/09/17 04:15:57;;;;;;;;;6.00;6.00;;;;;14.02;60.48;99013.22;4994614;28;46121;-59
2022/09/17 04:18:22;;;;;;;;;6.00;5.25;;;;;13.97;60.40;99000.22;4994511;28;45562;-59
2022/09/17 04:20:48;;;;;;;;;7.00;5.75;;;;;13.94;60.59;99041.94;4994747;28;45445;-59
2022/09/17 04:23:13;;;;;;;;;7.50;7.00;;;;;13.92;60.62;99030.56;4994486;28;45476;-59
2022/09/17 04:25:39;;;;;;;;;5.00;5.00;;;;;13.88;60.71;99019.28;4994706;28;45811;-59
2022/09/17 04:28:04;;;;;;;;;4.00;4.00;;;;;13.85;61.03;99022.09;4995184;28;45446;-59
2022/09/17 04:30:29;;;;;;;;;5.00;5.00;;;;;13.87;61.22;99020.22;5009842;28;45398;-59
2022/09/17 04:32:55;;;;;;;;;4.00;4.00;;;;;13.83;60.84;99026.63;4994621;28;45354;-59
2022/09/17 04:35:20;;;;;;;;;5.00;5.00;;;;;13.82;61.30;99030.22;4994262;28;47218;-59
2022/09/17 04:37:53;;;;;;;;;7.25;6.75;;;;;13.77;61.76;99024.31;4994053;28;45231;-59
2022/09/17 04:40:19;;;;;;;;;4.50;4.50;;;;;13.71;61.93;99042.34;4994701;28;45465;-58
2022/09/17 04:42:45;;;;;;;;;6.75;5.50;;;;;13.66;62.03;99039.94;4994454;28;45487;-58
2022/09/17 04:45:10;;;;;;;;;4.50;4.00;;;;;13.66;61.93;99042.59;4991684;28;45622;-58
2022/09/17 04:47:39;;;;;;;;;5.25;4.50;;;;;13.65;61.27;99051.47;4973377;28;45462;-59
2022/09/17 04:50:05;;;;;;;;;8.50;5.25;;;;;13.61;61.37;99040.19;4981460;28;45459;-59
2022/09/17 04:52:32;;;;;;;;;4.50;4.50;;;;;13.61;61.93;99084.34;4994087;28;45492;-58
2022/09/17 04:54:57;;;;;;;;;5.75;5.25;;;;;13.59;61.91;99042.06;4993927;28;45398;-59
2022/09/17 04:57:24;;;;;;;;;6.00;6.00;;;;;13.55;62.34;99045.81;4994717;28;45431;-59
2022/09/17 04:59:50;;;;;;;;;6.00;5.50;;;;;13.52;62.41;99056.56;4985390;28;45186;-59
2022/09/17 05:02:15;;;;;;;;;3.75;3.75;;;;;13.48;62.51;99059.47;4974542;28;45328;-59
2022/09/17 05:04:40;;;;;;;;;5.00;3.50;;;;;13.49;62.42;99066.47;4974590;28;45507;-59
2022/09/17 05:07:06;;;;;;;;;5.50;5.50;;;;;13.47;62.94;99077.13;4974574;28;45219;-59
2022/09/17 05:09:31;;;;;;;;;3.75;3.75;;;;;13.44;63.04;99076.44;4974019;28;45388;-60
2022/09/17 05:11:57;;;;;;;;;4.75;4.50;;;;;13.37;63.68;99075.94;4976895;28;45380;-60
2022/09/17 05:14:22;;;;;;;;;4.25;4.25;;;;;13.36;63.44;99083.94;4977153;28;46180;-60
2022/09/17 05:16:47;;;;;;;;;3.75;3.75;;;;;13.33;63.85;99097.34;4977466;28;45403;-60
2022/09/17 05:19:13;;;;;;;;;6.00;6.00;;;;;13.28;63.71;99076.38;4974252;28;45455;-60
2022/09/17 05:21:38;;;;;;;;;6.00;6.00;;;;;13.25;64.88;99087.13;4995110;28;45161;-59
2022/09/17 05:24:04;;;;;;;;;2.75;2.00;;;;;13.21;64.52;99062.63;4996605;28;45439;-58
2022/09/17 05:26:29;;;;;;;;;5.00;5.00;;;;;13.21;64.71;99072.34;4979157;28;45435;-58
2022/09/17 05:28:54;;;;;;;;;4.00;4.00;;;;;13.18;64.79;99083.09;4992697;28;45561;-58
2022/09/17 05:31:20;;;;;;;;;8.75;6.75;;;;;13.15;64.67;99081.47;4997560;28;45416;-58
2022/09/17 05:33:45;;;;;;;;;7.25;4.75;;;;;13.14;64.96;99106.19;4996991;28;46488;-59
2022/09/17 05:36:10;;;;;;;;;5.25;3.75;;;;;13.11;65.57;99101.03;4996886;28;45425;-59
2022/09/17 05:38:36;;;;;;;;;4.00;4.00;;;;;13.10;65.63;99101.13;4996279;28;45406;-59
2022/09/17 05:41:05;;;;;;;;;4.75;4.00;;;;;13.06;65.82;99095.16;4983881;28;45477;-59
2022/09/17 05:43:31;;;;;;;;;5.50;5.00;;;;;13.02;65.81;99096.22;4975640;28;45733;-60
2022/09/17 05:46:02;;;;;;;;;8.00;7.00;;;;;13.00;65.82;99099.88;4988123;28;45340;-59
2022/09/17 05:48:27;;;;;;;;;5.00;5.00;;;;;13.00;65.84;99099.88;4993417;28;45385;-59
2022/09/17 05:50:54;;;;;;;;;6.25;6.25;;;;;12.96;66.20;99107.09;4984341;28;45396;-59
2022/09/17 05:53:20;;;;;;;;;7.50;6.75;;;;;12.93;66.09;99108.13;4993015;28;46268;-59
2022/09/17 05:55:45;;;;;;;;;7.00;7.00;;;;;12.96;66.07;99124.78;4977743;28;45712;-59
2022/09/17 05:58:16;;;;;;;;;6.00;5.50;;;;;12.93;67.13;99139.88;4980571;28;45478;-59
2022/09/17 06:00:41;;;;;;;;;9.25;7.00;;;;;12.90;66.68;99125.97;4980543;28;45535;-61
2022/09/17 06:03:10;;;;;;;;;5.00;5.00;;;;;12.87;66.65;99132.25;4977439;28;46282;-60
2022/09/17 06:05:35;;;;;;;;;6.25;6.25;;;;;12.85;66.90;99126.16;4978184;28;45238;-59
2022/09/17 06:08:01;;;;;;;;;6.25;6.25;;;;;12.82;66.80;99136.91;4982973;28;45944;-60
2022/09/17 06:10:26;;;;;;;;;6.50;6.50;;;;;12.81;66.84;99127.25;4985700;28;45368;-59
2022/09/17 06:12:58;;;;;;;;;6.75;6.00;;;;;12.83;66.79;99128.03;4979926;28;46525;-59
2022/09/17 06:15:25;;;;;;;;;6.75;6.25;;;;;12.84;66.79;99135.03;4985991;28;45455;-60
2022/09/17 06:17:51;;;;;;;;;6.75;6.75;;;;;12.85;66.79;99130.59;4996185;28;45459;-61
2022/09/17 06:20:17;;;;;;;;;4.00;4.00;;;;;12.84;66.15;99144.75;4996097;28;45456;-59
2022/09/17 06:22:43;;;;;;;;;6.00;6.00;;;;;12.87;65.96;99144.63;4994789;28;45643;-60
2022/09/17 06:25:08;;;;;;;;;6.50;6.00;;;;;12.87;65.95;99150.78;4995763;28;45304;-60
2022/09/17 06:27:34;;;;;;;;;5.00;4.50;;;;;12.90;65.94;99129.44;4995781;28;45357;-60
2022/09/17 06:30:00;;;;;;;;;7.00;5.50;;;;;12.86;66.10;99149.06;4996426;28;45425;-66
2022/09/17 06:32:26;;;;;;;;;4.00;4.00;;;;;12.86;65.77;99154.34;4995979;28;46300;-63
2022/09/17 06:34:52;;;;;;;;;7.00;6.00;;;;;12.87;65.84;99139.31;4995343;28;45433;-64
2022/09/17 06:37:18;;;;;;;;;5.00;5.00;;;;;12.90;65.26;99139.19;4975905;28;45545;-62
2022/09/17 06:39:44;;;;;;;;;5.25;5.25;;;;;12.92;65.53;99145.22;4974044;28;45465;-61
2022/09/17 06:42:10;;;;;;;;;5.50;5.00;;;;;12.97;64.50;99152.94;4972143;28;48538;-61
2022/09/17 06:44:35;;;;;;;;;4.75;4.75;;;;;13.02;64.08;99149.16;4975039;28;46028;-61
2022/09/17 06:47:01;;;;;;;;;4.00;4.00;;;;;13.08;64.63;99148.84;4975436;28;45458;-61
2022/09/17 06:49:27;;;;;;;;;5.50;5.00;;;;;13.19;63.23;99153.63;4973574;28;45573;-61
2022/09/17 06:51:53;;;;;;;;;6.25;6.00;;;;;13.21;62.97;99168.53;4975040;28;47665;-61
2022/09/17 06:54:18;;;;;;;;;4.00;4.00;;;;;13.28;63.18;99151.38;4974997;28;45484;-62
2022/09/17 06:56:46;;;;;;;;;6.75;5.25;;;;;13.25;63.09;99143.59;4979899;28;45421;-61
2022/09/17 06:59:11;;;;;;;;;7.00;5.50;;;;;13.23;63.00;99169.31;4991764;28;45381;-61
2022/09/17 07:01:36;;;;;;;;;5.00;5.00;;;;;13.18;62.55;99151.94;4974083;28;46537;-62
2022/09/17 07:04:02;;;;;;;;;3.75;3.75;;;;;13.15;63.05;99150.28;4975806;28;45374;-62
2022/09/17 07:06:27;;;;;;;;;6.75;6.25;;;;;13.14;62.91;99166.22;4974328;28;45486;-61
2022/09/17 07:08:53;;;;;;;;;6.50;5.00;;;;;13.13;63.07;99154.75;4974128;28;45354;-61
2022/09/17 07:11:18;;;;;;;;;4.25;4.25;;;;;13.12;63.08;99147.75;4973233;28;46566;-61
2022/09/17 07:13:43;;;;;;;;;5.50;5.50;;;;;13.12;62.98;99145.09;4958674;28;45445;-62
2022/09/17 07:16:09;;;;;;;;;4.00;4.00;;;;;13.13;62.80;99138.03;4957203;28;45684;-62
2022/09/17 07:18:35;;;;;;;;;5.25;5.00;;;;;13.12;62.85;99150.41;4973165;28;45674;-62
2022/09/17 07:21:03;;;;;;;;;4.00;4.00;;;;;13.12;62.82;99162.78;4981751;28;45413;-62
2022/09/17 07:23:32;;;;;;;;;8.25;5.75;;;;;13.15;62.83;99157.38;4973643;28;45402;-61
2022/09/17 07:26:06;;;;;;;;;4.00;4.00;;;;;13.20;62.52;99152.72;4972360;28;45344;-61
2022/09/17 07:28:31;;;;;;;;;3.00;3.00;;;;;13.26;62.21;99139.16;4975698;28;45438;-66
2022/09/17 07:30:57;;;;;;;;;4.75;4.50;;;;;13.30;62.22;99156.59;4973434;28;46212;-62
2022/09/17 07:33:25;;;;;;;;;3.25;3.25;;;;;13.35;61.80;99166.97;4973718;28;45424;-62
2022/09/17 07:35:58;;;;;;;;;6.00;4.75;;;;;13.36;61.96;99140.41;4972328;28;45418;-61
2022/09/17 07:38:24;;;;;;;;;2.75;2.75;;;;;13.45;61.18;99128.47;4976156;28;45548;-61
2022/09/17 07:41:05;;;;;;;;;5.25;5.25;;;;;13.49;61.33;99140.63;4994215;28;46233;-60
2022/09/17 07:43:33;;;;;;;;;5.75;5.25;;;;;13.50;61.20;99129.97;4994332;28;45366;-60
2022/09/17 07:46:00;;;;;;;;;3.00;3.00;;;;;13.47;61.04;99151.28;4985113;28;45526;-60
2022/09/17 07:48:26;;;;;;;;;3.75;3.75;;;;;13.49;61.23;99138.84;4990564;28;45345;-60
2022/09/17 07:50:51;;;;;;;;;6.75;4.00;;;;;13.51;61.19;99155.50;5009351;28;45990;-60
2022/09/17 07:53:17;;;;;;;;;4.00;4.00;;;;;13.59;60.44;99131.25;4974442;28;45390;-59
2022/09/17 07:55:53;;;;;;;;;3.25;3.25;;;;;13.59;60.63;99140.06;4988113;28;45420;-60
2022/09/17 07:58:23;;;;;;;;;4.00;4.00;;;;;13.62;60.27;99121.38;4984221;28;45442;-59
2022/09/17 08:00:49;;;;;;;;;5.50;3.50;;;;;13.63;60.35;99140.75;4972339;28;46744;-59
2022/09/17 08:03:15;;;;;;;;;4.50;3.00;;;;;13.67;60.46;99128.22;4973695;28;45459;-59
2022/09/17 08:05:40;;;;;;;;;4.00;3.00;;;;;13.66;60.10;99113.25;4971973;28;45327;-59
2022/09/17 08:08:06;;;;;;;;;3.00;2.25;;;;;13.66;59.51;99135.31;4973946;28;45381;-65
2022/09/17 08:10:32;;;;;;;;;6.75;6.75;;;;;13.73;59.47;99149.97;4969299;28;45388;-61
2022/09/17 08:12:58;;;;;;;;;1.00;1.00;;;;;13.79;59.47;99111.66;4978372;28;45413;-63
2022/09/17 08:15:24;;;;;;;;;4.00;3.75;;;;;13.83;58.51;99132.63;4973635;28;45186;-62
2022/09/17 08:17:50;;;;;;;;;4.75;4.75;;;;;13.85;58.84;99125.47;4978100;28;45370;-61
2022/09/17 08:20:16;;;;;;;;;5.00;3.75;;;;;13.85;58.34;99122.81;4993951;28;45378;-64
2022/09/17 08:22:42;;;;;;;;;5.00;3.50;;;;;13.88;58.42;99148.28;4992684;28;45527;-61
2022/09/17 08:25:08;;;;;;;;;5.00;4.75;;;;;13.89;58.32;99148.22;4986238;28;45437;-61
2022/09/17 08:27:34;;;;;;;;;4.50;4.00;;;;;13.97;57.86;99150.44;4990350;28;45588;-63
2022/09/17 08:30:00;;;;;;;;;2.00;2.00;;;;;14.09;57.81;99133.00;4972467;28;45751;-62
2022/09/17 08:32:28;;;;;;;;;4.00;3.00;;;;;14.14;58.05;99149.53;4973038;28;45398;-63
2022/09/17 08:34:54;;;;;;;;;4.00;3.25;;;;;14.21;57.91;99162.41;4974446;28;45350;-62
2022/09/17 08:37:19;;;;;;;;;1.25;1.25;;;;;14.31;57.12;99160.94;4971670;28;45603;-62
2022/09/17 08:39:45;;;;;;;;;2.00;2.00;;;;;14.40;56.56;99142.81;4968939;28;46241;-62
2022/09/17 08:42:17;;;;;;;;;4.00;4.00;;;;;14.42;55.66;99152.41;4971951;28;45519;-63
2022/09/17 08:44:46;;;;;;;;;2.00;2.00;;;;;14.49;56.20;99144.97;4970398;28;45482;-62
2022/09/17 08:47:30;;;;;;;;;2.50;2.50;;;;;14.57;56.23;99156.03;4965678;28;45694;-62
2022/09/17 08:50:04;;;;;;;;;3.00;3.00;;;;;14.64;55.06;99154.75;4971078;28;46392;-64
2022/09/17 08:52:48;;;;;;;;;2.40;2.40;;;;;14.74;54.56;99149.78;4972551;28;45522;-63
2022/09/17 08:55:33;;;;;;;;;3.00;3.00;;;;;14.78;53.93;99151.31;4966904;28;45555;-64
2022/09/17 08:58:26;;;;;;;;;2.00;2.00;;;;;14.83;53.53;99144.81;4968944;28;45463;-65
2022/09/17 09:01:19;;;;;;;;;4.00;2.25;;;;;14.86;53.91;99147.28;4970869;28;45429;-63
2022/09/17 09:03:59;;;;;;;;;534.00;428.25;;;;;15.00;54.08;99142.03;4973659;28;45391;-67
2022/09/17 09:06:40;;;;;;;;;2.75;1.75;;;;;15.11;52.92;99148.50;4974290;28;45481;-65
2022/09/17 09:09:13;;;;;;;;;2.00;2.00;;;;;15.11;52.75;99135.22;4955106;28;45467;-66
2022/09/17 09:11:41;;;;;;;;;1.75;1.25;;;;;15.09;52.88;99142.44;4970457;28;46531;-66
2022/09/17 09:14:21;;;;;;;;;1.80;1.80;;;;;15.16;51.66;99146.44;4975165;28;45437;-62
2022/09/17 09:16:51;;;;;;;;;3.25;2.75;;;;;15.27;51.79;99138.69;4976803;28;45558;-62
2022/09/17 09:19:31;;;;;;;;;1.50;1.50;;;;;15.40;52.67;99133.53;4974062;28;45574;-62
2022/09/17 09:22:03;;;;;;;;;0.75;0.75;;;;;15.55;51.59;99146.78;4972903;28;46385;-62
2022/09/17 09:24:52;;;;;;;;;3.40;2.60;;;;;15.56;51.24;99143.19;4972059;28;45378;-63
2022/09/17 09:27:34;;;;;;;;;2.00;2.00;;;;;15.53;51.75;99135.38;4975108;28;45464;-65
2022/09/17 09:30:10;;;;;;;;;1.00;0.50;;;;;15.63;51.20;99136.53;4979950;28;45434;-64
2022/09/17 09:32:44;;;;;;;;;0.80;0.80;;;;;15.62;51.23;99152.59;4976477;28;45544;-61
2022/09/17 09:35:26;;;;;;;;;3.20;1.40;;;;;15.66;49.29;99143.47;4980016;28;45337;-65
2022/09/17 09:38:12;;;;;;;;;0.60;0.60;;;;;15.67;50.19;99132.75;4985715;28;45427;-65
2022/09/17 09:40:52;;;;;;;;;1.25;1.00;;;;;15.70;49.27;99150.34;4982430;28;45530;-65
2022/09/17 09:43:43;;;;;;;;;1.00;0.20;;;;;15.73;48.91;99117.41;4975460;28;45544;-65
2022/09/17 09:46:18;;;;;;;;;1.00;0.60;;;;;15.74;48.35;99105.81;4974914;28;45355;-64
2022/09/17 09:49:17;;;;;;;;;0.00;0.00;;;;;15.78;48.48;99152.50;4974200;28;45507;-65
2022/09/17 09:51:53;;;;;;;;;1.50;1.50;;;;;15.81;48.71;99121.28;4975299;28;45664;-65
2022/09/17 09:54:27;;;;;;;;;2.40;1.20;;;;;15.88;47.42;99112.00;4975352;28;45527;-65
2022/09/17 09:56:57;;;;;;;;;40.00;32.00;;;;;15.90;47.21;99134.03;4975452;28;45403;-68
2022/09/17 09:59:23;;;;;;;;;0.00;0.00;;;;;15.93;46.92;99104.56;4976057;28;45448;-67
2022/09/17 10:01:49;;;;;;;;;2.75;0.75;;;;;15.99;46.87;99106.84;4995949;28;45370;-68
2022/09/17 10:04:21;;;;;;;;;0.00;0.00;;;;;16.02;46.60;99121.75;4990538;28;45620;-67
2022/09/17 10:06:50;;;;;;;;;1.60;0.00;;;;;16.02;45.49;99143.91;4970814;28;45505;-67
2022/09/17 10:09:19;;;;;;;;;0.80;0.80;;;;;16.03;45.84;99092.41;4994486;28;45487;-66
2022/09/17 10:11:59;;;;;;;;;1.00;1.00;;;;;16.02;46.94;99132.41;4976493;28;45415;-67
2022/09/17 10:14:27;;;;;;;;;0.80;0.80;;;;;16.03;46.33;99095.09;4975951;28;45353;-66
2022/09/17 10:17:13;;;;;;;;;0.60;0.60;;;;;16.09;46.47;99103.63;4976461;28;45419;-68
2022/09/17 10:19:40;;;;;;;;;1.20;1.00;;;;;16.08;46.00;99123.19;4972246;28;45432;-67
2022/09/17 10:22:30;;;;;;;;;1.75;0.00;;;;;16.08;45.90;99102.78;4982765;28;45505;-67
2022/09/17 10:24:58;;;;;;;;;1.00;0.75;;;;;16.07;46.21;99101.06;4970377;28;45561;-66
2022/09/17 10:27:25;;;;;;;;;0.20;0.20;;;;;16.14;46.03;99105.03;4978966;28;45499;-66
2022/09/17 10:29:57;;;;;;;;;0.40;0.40;;;;;16.19;45.54;99104.75;4983897;28;45575;-65
2022/09/17 10:32:22;;;;;;;;;0.75;0.75;;;;;16.25;46.66;99085.75;4976316;28;45415;-66
2022/09/17 10:35:22;;;;;;;;;1.25;0.75;;;;;16.33;44.76;99097.59;4987332;28;45433;-66
2022/09/17 10:37:50;;;;;;;;;0.80;0.80;;;;;16.42;45.07;99108.63;4977174;28;45523;-66
2022/09/17 10:40:18;;;;;;;;;0.80;0.80;;;;;16.37;45.02;99128.38;4975215;28;45515;-71
2022/09/17 10:42:48;;;;;;;;;0.25;0.25;;;;;16.36;44.73;99137.31;4974556;28;45442;-65
2022/09/17 10:45:29;;;;;;;;;0.75;0.75;;;;;16.40;45.42;99127.34;4974362;28;46898;-66
2022/09/17 10:47:59;;;;;;;;;1.20;0.00;;;;;16.44;45.74;99125.31;4979227;28;45500;-66
2022/09/17 10:50:28;;;;;;;;;1.00;1.00;;;;;16.47;46.38;99104.69;4985090;28;45380;-64
2022/09/17 10:52:57;;;;;;;;;0.75;0.75;;;;;16.42;46.01;99135.22;4981133;28;45341;-63
2022/09/17 10:55:41;;;;;;;;;0.60;0.60;;;;;16.46;46.51;99150.88;4983506;28;46429;-66
2022/09/17 10:58:06;;;;;;;;;1.00;1.00;;;;;16.44;45.78;99146.59;4977099;28;45436;-63
2022/09/17 11:00:55;;;;;;;;;0.50;0.50;;;;;16.42;47.09;99110.28;4974504;28;45543;-64
2022/09/17 11:03:59;;;;;;;;;0.00;0.00;;;;;16.34;47.56;99139.22;4965276;28;45550;-64
2022/09/17 11:07:01;;;;;;;;;0.00;0.00;;;;;16.32;48.10;99165.06;4973604;28;45633;-64
2022/09/17 11:09:29;;;;;;;;;0.80;0.80;;;;;16.29;47.93;99125.34;4974049;28;45454;-64
2022/09/17 11:12:04;;;;;;;;;0.00;0.00;;;;;16.30;47.28;99148.34;4972019;28;45309;-64
2022/09/17 11:15:06;;;;;;;;;0.00;0.00;;;;;16.30;47.15;99153.66;4970117;28;45449;-67
2022/09/17 11:17:49;;;;;;;;;0.60;0.60;;;;;16.26;47.40;99140.63;4974361;28;45590;-65
2022/09/17 11:20:41;;;;;;;;;1.60;0.80;;;;;16.28;48.50;99117.44;4974404;28;45442;-66
2022/09/17 11:23:37;;;;;;;;;0.00;0.00;;;;;16.32;48.00;99146.44;4972904;28;45499;-68
2022/09/17 11:26:07;;;;;;;;;1.00;1.00;;;;;16.31;47.40;99146.53;4960319;28;45642;-66
2022/09/17 11:29:09;;;;;;;;;0.60;0.00;;;;;16.30;47.72;99148.34;4972864;28;48342;-67
2022/09/17 11:31:47;;;;;;;;;0.80;0.80;;;;;16.41;47.74;99147.69;4972671;28;45348;-65
2022/09/17 11:34:21;;;;;;;;;1.40;0.00;;;;;16.40;47.80;99157.47;4970897;28;45541;-66
2022/09/17 11:37:20;;;;;;;;;0.00;0.00;;;;;16.50;47.78;99148.88;4973005;28;45531;-66
2022/09/17 11:39:56;;;;;;;;;1.60;0.80;;;;;16.48;48.29;99164.09;4988222;28;47368;-64
2022/09/17 11:42:26;;;;;;;;;1.80;0.00;;;;;16.47;48.50;99149.06;4972168;28;45450;-62
2022/09/17 11:45:02;;;;;;;;;0.60;0.00;;;;;16.53;48.65;99154.88;4955766;28;45407;-62
2022/09/17 11:47:35;;;;;;;;;1.25;0.00;;;;;16.45;48.20;99162.47;4973542;28;45272;-64
2022/09/17 11:50:18;;;;;;;;;0.00;0.00;;;;;16.43;48.75;99169.69;4967983;28;46016;-63
2022/09/17 11:53:02;;;;;;;;;0.00;0.00;;;;;16.45;48.31;99145.66;4964164;28;45498;-66
2022/09/17 11:55:46;;;;;;;;;0.80;0.80;;;;;16.45;48.65;99177.59;4955123;28;45592;-65